Time;durP1;ratioP1;P1;durP2;ratioP2;P2;SDS_P1;SDS_P2;PMS_P1;PMS_P2;Temp;Humidity;BMP_temperature;BMP_pressure;BME280_temperature;BME280_humidity;BME280_pressure;Samples;Min_cycle;Max_cycle;Signal;HPM_P1;HPM_P2
2022/06/18 00:04:47;;;;;;;9.27;4.68;;;;;;;;;;10371619;28;20105;-68
2022/06/18 00:09:57;;;;;;;7.33;4.47;;;;;;;;;;10371014;28;20045;-68
2022/06/18 00:15:03;;;;;;;9.10;4.40;;;;;;;;;;10370777;28;20363;-68
2022/06/18 00:20:06;;;;;;;9.38;4.63;;;;;;;;;;10368534;28;20280;-67
2022/06/18 00:25:18;;;;;;;7.32;4.60;;;;;;;;;;10360709;28;20062;-68
2022/06/18 00:30:25;;;;;;;4.97;4.32;;;;;;;;;;10370143;28;20046;-68
2022/06/18 00:35:28;;;;;;;5.95;4.07;;;;;;;;;;10370309;28;20048;-68
2022/06/18 00:40:35;;;;;;;7.35;4.38;;;;;;;;;;10369659;28;20397;-68
2022/06/18 00:45:39;;;;;;;7.95;3.97;;;;;;;;;;10356808;28;20054;-67
2022/06/18 00:50:47;;;;;;;10.07;4.90;;;;;;;;;;10369450;28;20282;-67
2022/06/18 00:55:55;;;;;;;6.00;4.47;;;;;;;;;;10369255;28;20042;-67
2022/06/18 01:01:00;;;;;;;5.95;5.07;;;;;;;;;;10355744;28;20047;-67
2022/06/18 01:06:13;;;;;;;6.20;4.35;;;;;;;;;;10369032;28;20061;-68
2022/06/18 01:11:20;;;;;;;7.38;4.03;;;;;;;;;;10368791;28;20042;-68
2022/06/18 01:16:25;;;;;;;8.35;4.70;;;;;;;;;;10368612;28;20038;-68
2022/06/18 01:21:36;;;;;;;7.70;4.20;;;;;;;;;;10355472;28;20109;-67
2022/06/18 01:26:43;;;;;;;12.15;4.45;;;;;;;;;;10354705;28;20062;-67
2022/06/18 01:31:47;;;;;;;8.07;4.22;;;;;;;;;;10368367;28;20046;-67
2022/06/18 01:36:49;;;;;;;13.50;5.38;;;;;;;;;;10355285;28;20078;-67
2022/06/18 01:41:58;;;;;;;8.77;5.15;;;;;;;;;;10354452;28;20057;-68
2022/06/18 01:47:06;;;;;;;4.40;4.00;;;;;;;;;;10368010;28;20046;-67
2022/06/18 01:52:10;;;;;;;5.28;3.97;;;;;;;;;;10359230;28;20109;-67
2022/06/18 01:57:19;;;;;;;8.70;4.07;;;;;;;;;;10376054;28;20042;-68
2022/06/18 02:02:22;;;;;;;9.48;4.35;;;;;;;;;;10375826;28;20102;-68
2022/06/18 02:07:25;;;;;;;5.75;4.05;;;;;;;;;;10362131;28;20050;-67
2022/06/18 02:12:34;;;;;;;4.20;3.53;;;;;;;;;;10361800;28;20101;-67
2022/06/18 02:17:38;;;;;;;5.10;3.30;;;;;;;;;;10375172;28;20306;-67
2022/06/18 02:22:44;;;;;;;3.85;3.20;;;;;;;;;;10365514;28;20061;-67
2022/06/18 02:27:50;;;;;;;5.30;3.65;;;;;;;;;;10374541;28;20038;-68
2022/06/18 02:32:57;;;;;;;5.13;3.50;;;;;;;;;;10360649;28;20050;-68
2022/06/18 02:38:00;;;;;;;5.78;3.55;;;;;;;;;;10374311;28;20101;-67
2022/06/18 02:43:04;;;;;;;9.67;3.87;;;;;;;;;;10361129;28;20054;-67
2022/06/18 02:48:09;;;;;;;5.20;3.22;;;;;;;;;;10374482;28;20101;-66
2022/06/18 02:53:13;;;;;;;7.50;3.38;;;;;;;;;;10374169;28;20038;-67
2022/06/18 02:58:22;;;;;;;4.15;3.25;;;;;;;;;;10374026;28;20328;-67
2022/06/18 03:03:27;;;;;;;4.32;3.38;;;;;;;;;;10373296;28;20042;-68
2022/06/18 03:08:31;;;;;;;3.55;3.13;;;;;;;;;;10373475;28;20364;-67
2022/06/18 03:13:36;;;;;;;3.45;2.60;;;;;;;;;;10359744;28;20429;-68
2022/06/18 03:18:40;;;;;;;4.35;3.00;;;;;;;;;;10373273;28;20081;-68
2022/06/18 03:23:45;;;;;;;3.42;3.08;;;;;;;;;;10360743;28;20050;-67
2022/06/18 03:28:50;;;;;;;2.97;2.67;;;;;;;;;;10359372;28;20111;-67
2022/06/18 03:33:53;;;;;;;5.82;3.10;;;;;;;;;;10359667;28;20121;-68
2022/06/18 03:38:55;;;;;;;3.85;2.58;;;;;;;;;;10372398;28;20334;-68
2022/06/18 03:43:59;;;;;;;4.25;2.88;;;;;;;;;;10358632;28;20110;-68
2022/06/18 03:49:02;;;;;;;;;;;;;;;;;;10358807;28;20052;-68
2022/06/18 03:54:05;;;;;;;2.63;2.42;;;;;;;;;;10371749;28;19918;-68
2022/06/18 03:59:10;;;;;;;4.73;2.60;;;;;;;;;;10371700;28;20046;-68
2022/06/18 04:04:14;;;;;;;4.72;2.80;;;;;;;;;;10371396;28;20042;-68
2022/06/18 04:09:17;;;;;;;2.45;2.25;;;;;;;;;;10371407;28;20097;-68
2022/06/18 04:14:21;;;;;;;3.38;2.47;;;;;;;;;;10356704;28;20050;-68
2022/06/18 04:19:24;;;;;;;5.38;4.28;;;;;;;;;;10370647;28;20045;-68
2022/06/18 04:24:27;;;;;;;6.60;6.10;;;;;;;;;;10363089;28;20126;-67
2022/06/18 04:29:32;;;;;;;5.32;2.92;;;;;;;;;;10357059;28;20392;-68
2022/06/18 04:34:35;;;;;;;4.25;3.85;;;;;;;;;;10357200;28;20230;-68
2022/06/18 04:39:37;;;;;;;4.07;2.40;;;;;;;;;;10370077;28;20065;-68
2022/06/18 04:44:41;;;;;;;3.05;1.88;;;;;;;;;;10356867;28;20483;-68
2022/06/18 04:49:44;;;;;;;3.35;1.90;;;;;;;;;;10369721;28;20085;-68
2022/06/18 04:54:46;;;;;;;6.88;2.20;;;;;;;;;;10369454;28;20042;-67
2022/06/18 04:59:51;;;;;;;2.88;2.42;;;;;;;;;;10369251;28;20122;-67
2022/06/18 05:04:55;;;;;;;4.25;2.05;;;;;;;;;;10369225;28;20042;-67
2022/06/18 05:09:58;;;;;;;6.00;2.30;;;;;;;;;;10369436;28;20421;-68
2022/06/18 05:15:06;;;;;;;2.63;2.10;;;;;;;;;;10362171;28;20249;-68
2022/06/18 05:20:13;;;;;;;3.30;1.92;;;;;;;;;;10365173;28;20403;-68
2022/06/18 05:25:17;;;;;;;3.75;2.60;;;;;;;;;;10355203;28;20054;-67
2022/06/18 05:30:25;;;;;;;4.20;2.40;;;;;;;;;;10354807;28;20157;-67
2022/06/18 05:35:28;;;;;;;3.72;2.88;;;;;;;;;;10349465;28;20054;-68
2022/06/18 05:40:31;;;;;;;3.00;2.17;;;;;;;;;;10368576;28;20034;-68
2022/06/18 05:45:35;;;;;;;3.30;2.13;;;;;;;;;;10353023;28;20058;-67
2022/06/18 05:50:38;;;;;;;5.25;2.42;;;;;;;;;;10352815;28;20046;-67
2022/06/18 05:55:41;;;;;;;4.07;2.30;;;;;;;;;;10368260;28;20101;-68
2022/06/18 06:00:45;;;;;;;5.35;2.13;;;;;;;;;;10368328;28;20038;-68
2022/06/18 06:05:47;;;;;;;2.83;2.40;;;;;;;;;;10354589;28;20077;-68
2022/06/18 06:16:17;;;;;;;3.13;2.53;;;;;;;;;;10367908;28;20065;-68
2022/06/18 06:21:24;;;;;;;3.28;2.20;;;;;;;;;;10361218;28;20052;-68
2022/06/18 06:26:31;;;;;;;3.20;2.22;;;;;;;;;;10352049;28;20417;-68
2022/06/18 06:31:36;;;;;;;2.92;2.17;;;;;;;;;;10367690;28;20283;-69
2022/06/18 06:36:39;;;;;;;3.28;2.33;;;;;;;;;;10369909;28;20081;-68
2022/06/18 06:41:41;;;;;;;4.93;2.58;;;;;;;;;;10371895;28;20045;-69
2022/06/18 06:46:45;;;;;;;5.68;2.25;;;;;;;;;;10361136;28;20110;-68
2022/06/18 06:51:48;;;;;;;5.28;1.95;;;;;;;;;;10361256;28;20361;-68
2022/06/18 07:02:16;;;;;;;1.65;0.65;;;;;;;;;;10360338;28;20050;-69
2022/06/18 07:07:19;;;;;;;0.00;0.00;;;;;;;;;;10360690;28;20122;-68
2022/06/18 07:12:29;;;;;;;0.00;0.00;;;;;;;;;;10372826;28;20052;-69
2022/06/18 07:17:34;;;;;;;0.00;0.00;;;;;;;;;;10360431;28;20126;-68
2022/06/18 07:22:37;;;;;;;0.00;0.00;;;;;;;;;;10363791;28;20065;-69
2022/06/18 07:27:41;;;;;;;0.00;0.00;;;;;;;;;;10358215;28;20061;-67
2022/06/18 07:32:47;;;;;;;0.00;0.00;;;;;;;;;;10372509;28;20334;-69
2022/06/18 07:37:51;;;;;;;1.70;1.70;;;;;;;;;;10370782;28;20138;-69
2022/06/18 07:42:55;;;;;;;1.30;1.30;;;;;;;;;;10372171;28;20069;-69
2022/06/18 07:47:59;;;;;;;4.82;4.72;;;;;;;;;;10371048;28;20042;-69
2022/06/18 07:53:01;;;;;;;12.00;11.50;;;;;;;;;;10368947;28;20043;-69
2022/06/18 07:58:04;;;;;;;7.65;7.35;;;;;;;;;;10357376;28;20058;-68
2022/06/18 08:03:09;;;;;;;5.63;5.43;;;;;;;;;;10369552;28;20046;-70
2022/06/18 08:08:13;;;;;;;6.22;6.03;;;;;;;;;;10354856;28;20053;-69
2022/06/18 08:13:15;;;;;;;7.13;6.90;;;;;;;;;;10356825;28;20238;-70
2022/06/18 08:18:19;;;;;;;7.00;6.80;;;;;;;;;;10370462;28;20241;-69
2022/06/18 08:23:22;;;;;;;28.15;26.65;;;;;;;;;;10359121;28;20061;-69
2022/06/18 08:28:24;;;;;;;29.88;28.27;;;;;;;;;;10369979;28;20376;-69
2022/06/18 08:33:30;;;;;;;15.55;14.85;;;;;;;;;;10370445;28;20341;-69
2022/06/18 08:38:34;;;;;;;7.68;7.38;;;;;;;;;;10356622;28;20108;-70
2022/06/18 08:44:03;;;;;;;1.70;1.70;;;;;;;;;;10369536;28;20046;-69
2022/06/18 08:49:44;;;;;;;1.50;1.50;;;;;;;;;;10369781;28;20042;-69
2022/06/18 08:54:55;;;;;;;1.15;1.15;;;;;;;;;;10368162;28;20444;-68
2022/06/18 09:00:05;;;;;;;1.02;1.02;;;;;;;;;;10369199;28;20042;-69
2022/06/18 09:05:19;;;;;;;0.50;0.50;;;;;;;;;;10356375;28;20050;-68
2022/06/18 09:10:31;;;;;;;0.20;0.20;;;;;;;;;;10355106;28;20096;-69
2022/06/18 09:15:38;;;;;;;0.50;0.50;;;;;;;;;;10369027;28;20053;-69
2022/06/18 09:20:45;;;;;;;0.10;0.10;;;;;;;;;;10355898;28;20054;-69
2022/06/18 09:25:52;;;;;;;0.10;0.10;;;;;;;;;;10351456;28;20058;-69
2022/06/18 09:30:59;;;;;;;0.50;0.50;;;;;;;;;;10365866;28;20039;-70
2022/06/18 09:36:11;;;;;;;0.00;0.00;;;;;;;;;;10357896;28;20065;-69
2022/06/18 09:41:18;;;;;;;0.50;0.50;;;;;;;;;;10352429;28;20050;-70
2022/06/18 09:46:24;;;;;;;0.70;0.70;;;;;;;;;;10354767;28;20092;-69
2022/06/18 09:51:36;;;;;;;0.00;0.00;;;;;;;;;;10368236;28;20046;-68
2022/06/18 09:56:44;;;;;;;0.00;0.00;;;;;;;;;;10354247;28;20054;-68
2022/06/18 10:01:52;;;;;;;0.00;0.00;;;;;;;;;;10367313;28;20050;-68
2022/06/18 10:06:57;;;;;;;0.00;0.00;;;;;;;;;;10354970;28;20054;-68
2022/06/18 10:12:06;;;;;;;0.00;0.00;;;;;;;;;;10371153;28;20049;-68
2022/06/18 10:17:24;;;;;;;0.00;0.00;;;;;;;;;;10361215;28;20054;-68
2022/06/18 10:22:40;;;;;;;0.00;0.00;;;;;;;;;;10367075;28;20074;-68
2022/06/18 10:27:50;;;;;;;0.15;0.13;;;;;;;;;;10375485;28;20050;-69
2022/06/18 10:33:03;;;;;;;2.40;0.68;;;;;;;;;;10373294;28;20049;-68
2022/06/18 10:38:23;;;;;;;6.07;0.82;;;;;;;;;;10361545;28;20061;-68
2022/06/18 10:43:39;;;;;;;0.80;0.70;;;;;;;;;;10374808;28;20050;-69
2022/06/18 10:48:46;;;;;;;4.57;0.93;;;;;;;;;;10374073;28;20042;-68
2022/06/18 10:53:53;;;;;;;1.38;0.80;;;;;;;;;;10374500;28;20046;-67
2022/06/18 10:58:57;;;;;;;1.17;0.68;;;;;;;;;;10374501;28;20233;-68
2022/06/18 11:04:03;;;;;;;1.10;0.93;;;;;;;;;;10359011;28;20054;-68
2022/06/18 11:09:12;;;;;;;3.40;1.15;;;;;;;;;;10374657;28;20338;-69
2022/06/18 11:14:18;;;;;;;3.33;1.23;;;;;;;;;;10373839;28;20053;-69
2022/06/18 11:19:28;;;;;;;6.50;1.67;;;;;;;;;;10371909;28;20100;-68
2022/06/18 11:24:35;;;;;;;4.80;1.15;;;;;;;;;;10365273;28;20061;-69
2022/06/18 11:29:41;;;;;;;3.50;1.08;;;;;;;;;;10359569;28;20054;-68
2022/06/18 11:34:46;;;;;;;1.90;0.85;;;;;;;;;;10372759;28;20050;-69
2022/06/18 11:39:57;;;;;;;5.93;1.60;;;;;;;;;;10372168;28;20049;-69
2022/06/18 11:45:17;;;;;;;2.97;1.30;;;;;;;;;;10359299;28;20055;-68
2022/06/18 11:50:24;;;;;;;6.60;1.52;;;;;;;;;;10358523;28;20093;-68
2022/06/18 11:55:32;;;;;;;2.40;1.15;;;;;;;;;;10357589;28;20054;-68
2022/06/18 12:00:47;;;;;;;8.60;1.98;;;;;;;;;;10372028;28;20050;-67
2022/06/18 12:05:54;;;;;;;5.72;1.67;;;;;;;;;;10357943;28;20058;-68
2022/06/18 12:11:04;;;;;;;3.50;0.90;;;;;;;;;;10370800;28;20283;-68
2022/06/18 12:16:23;;;;;;;5.13;3.17;;;;;;;;;;10371292;28;20062;-69
2022/06/18 12:21:33;;;;;;;2.03;1.05;;;;;;;;;;10356712;28;20097;-69
2022/06/18 12:26:44;;;;;;;4.70;1.33;;;;;;;;;;10357593;28;20065;-68
2022/06/18 12:31:51;;;;;;;3.35;1.42;;;;;;;;;;10357517;28;20054;-69
2022/06/18 12:37:03;;;;;;;0.80;0.80;;;;;;;;;;10369264;28;20057;-68
2022/06/18 12:42:14;;;;;;;2.70;1.20;;;;;;;;;;10368328;28;20050;-68
2022/06/18 12:47:26;;;;;;;6.20;1.67;;;;;;;;;;10370856;28;20058;-68
2022/06/18 12:52:39;;;;;;;3.53;1.30;;;;;;;;;;10370343;28;20042;-68
2022/06/18 12:57:56;;;;;;;2.10;0.90;;;;;;;;;;10369404;28;20306;-68
2022/06/18 13:03:33;;;;;;;3.83;1.20;;;;;;;;;;10369589;28;20068;-69
2022/06/18 13:08:45;;;;;;;2.15;1.20;;;;;;;;;;10369917;28;20038;-68
2022/06/18 13:14:02;;;;;;;3.67;1.10;;;;;;;;;;10352831;28;20324;-69
2022/06/18 13:19:09;;;;;;;6.47;3.13;;;;;;;;;;10369788;28;20061;-68
2022/06/18 13:29:38;;;;;;;2.38;1.10;;;;;;;;;;10355116;28;20229;-67
2022/06/18 13:34:47;;;;;;;2.10;1.13;;;;;;;;;;10368485;28;20053;-69
2022/06/18 13:39:55;;;;;;;6.00;2.40;;;;;;;;;;10368557;28;20046;-68
2022/06/18 13:45:15;;;;;;;3.38;1.33;;;;;;;;;;10367718;28;20046;-69
2022/06/18 13:50:23;;;;;;;2.08;1.63;;;;;;;;;;10363526;28;20062;-68
2022/06/18 13:55:36;;;;;;;3.13;1.20;;;;;;;;;;10376578;28;20049;-69
2022/06/18 14:00:39;;;;;;;;;;;;;;;;;;10362339;28;20038;-67
2022/06/18 14:05:48;;;;;;;3.25;1.83;;;;;;;;;;10376545;28;20213;-69
2022/06/18 14:10:52;;;;;;;4.72;1.80;;;;;;;;;;10362671;28;20042;-68
2022/06/18 14:15:58;;;;;;;3.88;0.95;;;;;;;;;;10360360;28;20054;-68
2022/06/18 14:21:05;;;;;;;3.45;1.15;;;;;;;;;;10370950;28;20126;-68
2022/06/18 14:26:12;;;;;;;4.50;1.10;;;;;;;;;;10363379;28;20074;-68
2022/06/18 14:31:38;;;;;;;3.72;1.20;;;;;;;;;;10360021;28;20171;-68
2022/06/18 14:36:43;;;;;;;6.82;1.92;;;;;;;;;;10374906;28;20042;-68
2022/06/18 14:41:48;;;;;;;1.85;1.42;;;;;;;;;;10374824;28;20049;-69
2022/06/18 14:47:20;;;;;;;5.18;1.50;;;;;;;;;;10360249;28;20050;-68
2022/06/18 14:52:38;;;;;;;2.47;1.50;;;;;;;;;;10360597;28;20069;-68
2022/06/18 14:58:22;;;;;;;2.30;1.88;;;;;;;;;;10373556;28;20046;-69
2022/06/18 15:03:30;;;;;;;9.23;1.80;;;;;;;;;;10360171;28;20050;-68
2022/06/18 15:08:40;;;;;;;2.47;1.30;;;;;;;;;;10374181;28;20085;-68
2022/06/18 15:13:43;;;;;;;3.88;1.45;;;;;;;;;;10373893;28;20238;-68
2022/06/18 15:18:56;;;;;;;;;;;;;;;;;;10373062;28;20039;-68
2022/06/18 15:24:03;;;;;;;2.90;1.30;;;;;;;;;;10359724;28;19918;-68
2022/06/18 15:29:08;;;;;;;3.97;1.48;;;;;;;;;;10342325;28;20062;-68
2022/06/18 15:34:24;;;;;;;4.57;1.50;;;;;;;;;;10372970;28;20062;-68
2022/06/18 15:39:27;;;;;;;2.63;1.25;;;;;;;;;;10372704;28;20046;-68
2022/06/18 15:44:31;;;;;;;;;;;;;;;;;;10372630;28;20070;-68
2022/06/18 15:49:38;;;;;;;4.18;1.48;;;;;;;;;;10359035;28;20105;-67
2022/06/18 15:54:44;;;;;;;5.38;1.70;;;;;;;;;;10372241;28;20043;-68
2022/06/18 15:59:52;;;;;;;5.03;1.50;;;;;;;;;;10372118;28;20058;-69
2022/06/18 16:04:58;;;;;;;2.63;1.60;;;;;;;;;;10357597;28;20237;-67
2022/06/18 16:10:04;;;;;;;2.67;1.42;;;;;;;;;;10370601;28;20042;-68
2022/06/18 16:15:38;;;;;;;4.82;1.38;;;;;;;;;;10357685;28;20061;-68
2022/06/18 16:20:55;;;;;;;2.33;1.77;;;;;;;;;;10356724;28;20045;-68
2022/06/18 16:26:00;;;;;;;3.90;1.63;;;;;;;;;;10358071;28;20058;-69
2022/06/18 16:31:05;;;;;;;5.82;2.00;;;;;;;;;;10370907;28;20345;-68
2022/06/18 16:36:16;;;;;;;2.97;1.35;;;;;;;;;;10370042;28;20046;-69
2022/06/18 16:41:20;;;;;;;3.38;1.67;;;;;;;;;;10370214;28;20042;-68
2022/06/18 16:46:30;;;;;;;4.07;1.88;;;;;;;;;;10370435;28;20065;-68
2022/06/18 16:51:39;;;;;;;4.97;1.58;;;;;;;;;;10368805;28;20265;-68
2022/06/18 16:56:41;;;;;;;2.90;1.40;;;;;;;;;;10356308;28;20057;-68
2022/06/18 17:01:43;;;;;;;4.53;2.17;;;;;;;;;;10355976;28;20062;-68
2022/06/18 17:06:48;;;;;;;4.38;1.58;;;;;;;;;;10368940;28;20342;-68
2022/06/18 17:11:52;;;;;;;1.95;1.40;;;;;;;;;;10369138;28;20238;-68
2022/06/18 17:16:55;;;;;;;2.83;1.70;;;;;;;;;;10369014;28;20042;-69
2022/06/18 17:21:59;;;;;;;5.65;1.85;;;;;;;;;;10360814;28;20049;-68
2022/06/18 17:32:22;;;;;;;1.92;1.42;;;;;;;;;;10367589;28;20342;-69
2022/06/18 17:37:27;;;;;;;5.88;2.17;;;;;;;;;;10354359;28;20054;-68
2022/06/18 17:42:29;;;;;;;9.50;2.95;;;;;;;;;;10368366;28;20042;-69
2022/06/18 17:47:32;;;;;;;4.13;2.05;;;;;;;;;;10354095;28;20050;-69
2022/06/18 17:52:36;;;;;;;6.13;2.03;;;;;;;;;;10368915;28;20042;-69
2022/06/18 17:57:39;;;;;;;4.80;1.60;;;;;;;;;;10368023;28;20089;-68
2022/06/18 18:02:41;;;;;;;8.98;2.38;;;;;;;;;;10367287;28;20061;-68
2022/06/18 18:07:46;;;;;;;5.15;2.40;;;;;;;;;;10367740;28;20238;-68
2022/06/18 18:12:48;;;;;;;5.25;2.17;;;;;;;;;;10367939;28;20352;-68
2022/06/18 18:17:52;;;;;;;4.20;1.98;;;;;;;;;;10353633;28;20222;-68
2022/06/18 18:22:56;;;;;;;12.27;2.72;;;;;;;;;;10357355;28;20330;-68
2022/06/18 18:27:59;;;;;;;5.00;2.50;;;;;;;;;;10354598;28;20054;-67
2022/06/18 18:33:03;;;;;;;3.53;2.03;;;;;;;;;;10359128;28;20326;-68
2022/06/18 18:38:07;;;;;;;5.70;2.58;;;;;;;;;;10334713;28;20046;-67
2022/06/18 18:43:10;;;;;;;6.78;2.80;;;;;;;;;;10334911;28;20042;-68
2022/06/18 18:48:13;;;;;;;6.22;3.38;;;;;;;;;;10348501;28;20242;-69
2022/06/18 18:53:19;;;;;;;5.70;2.92;;;;;;;;;;10374712;28;20042;-68
2022/06/18 18:58:22;;;;;;;12.57;3.50;;;;;;;;;;10374256;28;20046;-68
2022/06/18 19:03:24;;;;;;;4.57;2.55;;;;;;;;;;10360015;28;20076;-68
2022/06/18 19:08:29;;;;;;;6.97;3.25;;;;;;;;;;10374192;28;20046;-69
2022/06/18 19:13:31;;;;;;;7.53;2.95;;;;;;;;;;10360153;28;20096;-69
2022/06/18 19:18:37;;;;;;;9.70;2.60;;;;;;;;;;10372512;28;20246;-68
2022/06/18 19:23:42;;;;;;;5.03;3.03;;;;;;;;;;10361348;28;20110;-68
2022/06/18 19:28:49;;;;;;;6.93;3.08;;;;;;;;;;10374117;28;20041;-68
2022/06/18 19:33:52;;;;;;;9.38;3.72;;;;;;;;;;10372521;28;20042;-68
2022/06/18 19:38:56;;;;;;;4.67;2.53;;;;;;;;;;10372214;28;20045;-68
2022/06/18 19:44:01;;;;;;;8.23;4.00;;;;;;;;;;10359834;28;20276;-68
2022/06/18 19:49:06;;;;;;;9.85;4.35;;;;;;;;;;10359145;28;20054;-68
2022/06/18 19:54:10;;;;;;;13.93;5.47;;;;;;;;;;10370685;28;20273;-67
2022/06/18 19:59:12;;;;;;;18.77;7.40;;;;;;;;;;10357564;28;20038;-67
2022/06/18 20:04:15;;;;;;;18.83;9.18;;;;;;;;;;10372087;28;20046;-69
2022/06/18 20:09:19;;;;;;;17.67;6.55;;;;;;;;;;10371143;28;20042;-68
2022/06/18 20:14:21;;;;;;;5.88;4.00;;;;;;;;;;10371715;28;20042;-68
2022/06/18 20:19:24;;;;;;;11.15;4.40;;;;;;;;;;10370969;28;20053;-69
2022/06/18 20:24:31;;;;;;;6.20;4.75;;;;;;;;;;10363689;28;20070;-68
2022/06/18 20:29:33;;;;;;;6.07;4.07;;;;;;;;;;10370919;28;20356;-68
2022/06/18 20:34:36;;;;;;;12.63;5.87;;;;;;;;;;10370351;28;20241;-67
2022/06/18 20:39:42;;;;;;;10.43;5.38;;;;;;;;;;10369950;28;20043;-68
2022/06/18 20:44:47;;;;;;;7.63;3.80;;;;;;;;;;10356635;28;20053;-67
2022/06/18 20:49:49;;;;;;;13.90;4.22;;;;;;;;;;10370071;28;20330;-68
2022/06/18 21:00:14;;;;;;;10.63;3.83;;;;;;;;;;10356844;28;20199;-67
2022/06/18 21:05:19;;;;;;;5.85;3.33;;;;;;;;;;10369942;28;20249;-68
2022/06/18 21:10:24;;;;;;;8.10;3.63;;;;;;;;;;10368458;28;20333;-68
2022/06/18 21:15:27;;;;;;;8.10;3.65;;;;;;;;;;10356198;28;20058;-69
2022/06/18 21:20:29;;;;;;;8.30;4.40;;;;;;;;;;10365930;28;20046;-68
2022/06/18 21:25:34;;;;;;;9.00;4.50;;;;;;;;;;10357583;28;20126;-69
2022/06/18 21:30:37;;;;;;;11.15;4.80;;;;;;;;;;10368730;28;20049;-69
2022/06/18 21:41:03;;;;;;;9.77;4.35;;;;;;;;;;10369431;28;20034;-68
2022/06/18 21:46:08;;;;;;;6.38;3.92;;;;;;;;;;10368786;28;20042;-69
2022/06/18 21:51:10;;;;;;;10.93;4.30;;;;;;;;;;10368932;28;20078;-69
2022/06/18 21:56:17;;;;;;;16.05;4.13;;;;;;;;;;10368475;28;20046;-68
2022/06/18 22:01:20;;;;;;;7.40;3.80;;;;;;;;;;10354858;28;20061;-68
2022/06/18 22:06:23;;;;;;;5.75;4.20;;;;;;;;;;10368811;28;20054;-67
2022/06/18 22:11:31;;;;;;;11.77;4.40;;;;;;;;;;10376550;28;20049;-68
2022/06/18 22:22:02;;;;;;;7.75;4.53;;;;;;;;;;10362186;28;20345;-68
2022/06/18 22:27:07;;;;;;;14.95;4.50;;;;;;;;;;10376014;28;20046;-68
2022/06/18 22:32:10;;;;;;;8.73;3.97;;;;;;;;;;10375718;28;20050;-67
2022/06/18 22:37:15;;;;;;;5.27;3.77;;;;;;;;;;10375253;28;20049;-67
2022/06/18 22:42:20;;;;;;;6.63;3.70;;;;;;;;;;10375143;28;20042;-68
2022/06/18 22:47:24;;;;;;;6.13;3.70;;;;;;;;;;10375046;28;20069;-68
2022/06/18 22:52:35;;;;;;;8.30;4.07;;;;;;;;;;10375060;28;20223;-68
2022/06/18 22:57:39;;;;;;;6.20;3.80;;;;;;;;;;10374701;28;20042;-69
2022/06/18 23:02:41;;;;;;;5.85;3.35;;;;;;;;;;10374792;28;20046;-68
2022/06/18 23:07:46;;;;;;;7.00;3.93;;;;;;;;;;10374050;28;20046;-67
2022/06/18 23:12:50;;;;;;;11.43;3.90;;;;;;;;;;10373840;28;20244;-68
2022/06/18 23:17:53;;;;;;;4.60;3.50;;;;;;;;;;10373121;28;20038;-68
2022/06/18 23:22:55;;;;;;;5.85;3.40;;;;;;;;;;10363282;28;20062;-68
2022/06/18 23:27:59;;;;;;;5.30;3.83;;;;;;;;;;10373143;28;20069;-68
2022/06/18 23:33:08;;;;;;;5.35;3.70;;;;;;;;;;10373248;28;20042;-68
2022/06/18 23:38:13;;;;;;;8.43;3.63;;;;;;;;;;10358918;28;20129;-68
2022/06/18 23:43:19;;;;;;;5.82;3.35;;;;;;;;;;10372472;28;20046;-68
2022/06/18 23:48:21;;;;;;;5.70;3.30;;;;;;;;;;10372226;28;20046;-68
2022/06/18 23:53:24;;;;;;;13.27;4.60;;;;;;;;;;10358488;28;20061;-67
2022/06/18 23:58:29;;;;;;;6.57;5.28;;;;;;;;;;10371823;28;20046;-68
